Newcastle, Texas
Current Conditions -  °F | °C
As of 2:10 AM on Monday 22 Dec 2014 (Local Time) from KRPH Reporting Station
Clear Clear  
Wind Chill: 45°   Ceiling: Unl
Heat Index: 50°   Visibility: 10mi
Dew Point: 45°   Wind: 10mph
Humidity: 83%   Direction: 190°S
Pressure: 29.57"   Gusts: NA
Location:  33.19°N, 98.74°W
Report Text: KRPH 220810Z AUTO 19009KT 10SM CLR 10/07 A2957 RMK AO2 T00980071
Loading
Personal Weather Stations






























Interactive Weather Map New forecast layout! Learn more

10-Day Weather Forecast

Advertisements
Track Severe Weather on mobile